createdAt,value
2023-04-02T00:01:40.567Z,1.33
2023-04-02T00:07:17.751Z,1.27
2023-04-02T00:12:33.682Z,1.30
2023-04-02T00:17:49.645Z,1.50
2023-04-02T00:23:07.365Z,1.25
2023-04-02T00:28:25.123Z,1.35
2023-04-02T00:33:44.030Z,1.67
2023-04-02T00:39:01.961Z,1.15
2023-04-02T00:44:22.024Z,1.10
2023-04-02T00:49:42.488Z,1.25
2023-04-02T00:55:10.704Z,1.50
2023-04-02T01:00:35.551Z,1.45
2023-04-02T01:06:11.110Z,1.45
2023-04-02T01:11:29.826Z,1.63
2023-04-02T01:16:54.254Z,1.70
2023-04-02T01:22:21.933Z,1.00
2023-04-02T01:27:57.438Z,1.23
2023-04-02T01:33:13.640Z,1.23
2023-04-02T01:38:40.017Z,1.38
2023-04-02T01:44:08.245Z,1.35
2023-04-02T01:49:24.670Z,1.63
2023-04-02T01:54:41.622Z,0.90
2023-04-02T02:00:00.344Z,1.10
2023-04-02T02:05:20.469Z,1.25
2023-04-02T02:10:39.722Z,1.20
2023-04-02T02:16:01.800Z,1.77
2023-04-02T02:21:27.764Z,1.58
2023-04-02T02:26:46.035Z,1.60
2023-04-02T02:32:03.451Z,2.45
2023-04-02T02:37:24.989Z,4.03
2023-04-02T02:42:48.264Z,2.33
2023-04-02T02:48:08.844Z,1.67
2023-04-02T02:53:25.644Z,2.22
2023-04-02T02:58:41.774Z,1.60
2023-04-02T03:03:58.038Z,1.30
2023-04-02T03:09:28.341Z,1.60
2023-04-02T03:14:56.028Z,1.67
2023-04-02T03:20:12.069Z,1.50
2023-04-02T03:25:39.159Z,1.92
2023-04-02T03:31:16.085Z,2.05
2023-04-02T03:36:43.790Z,1.98
2023-04-02T03:42:07.565Z,2.08
2023-04-02T03:47:38.119Z,1.77
2023-04-02T03:52:54.217Z,1.90
2023-04-02T03:58:25.831Z,1.63
2023-04-02T04:03:54.339Z,1.42
2023-04-02T04:09:26.340Z,0.98
2023-04-02T04:14:49.130Z,1.30
2023-04-02T04:20:34.164Z,1.13
2023-04-02T04:26:21.342Z,1.02
2023-04-02T04:31:49.714Z,1.10
2023-04-02T04:37:08.123Z,1.35
2023-04-02T04:42:31.295Z,1.33
2023-04-02T04:47:57.559Z,1.35
2023-04-02T04:53:17.894Z,2.42
2023-04-02T04:58:36.381Z,2.37
2023-04-02T05:04:16.593Z,3.83
2023-04-02T05:09:41.939Z,3.00
2023-04-02T05:15:01.318Z,3.03
2023-04-02T05:20:21.932Z,2.63
2023-04-02T05:25:49.869Z,2.83
2023-04-02T05:31:36.030Z,2.88
2023-04-02T05:36:52.306Z,3.28
2023-04-02T05:42:18.992Z,2.53
2023-04-02T05:47:41.287Z,2.80
2023-04-02T05:53:12.723Z,2.40
2023-04-02T05:58:45.327Z,2.45
2023-04-02T06:04:13.919Z,2.42
2023-04-02T06:10:05.235Z,1.77
2023-04-02T06:15:23.344Z,2.67
2023-04-02T06:20:39.064Z,2.53
2023-04-02T06:26:41.629Z,2.20
2023-04-02T06:32:01.650Z,2.53
2023-04-02T06:37:33.518Z,2.93
2023-04-02T06:42:56.427Z,2.05
2023-04-02T06:48:19.947Z,2.08
2023-04-02T06:53:35.818Z,2.35
2023-04-02T06:58:51.485Z,2.08
2023-04-02T07:04:07.695Z,2.03
2023-04-02T07:09:23.595Z,2.13
2023-04-02T07:14:39.543Z,1.85
2023-04-02T07:19:54.953Z,1.83
2023-04-02T07:25:11.121Z,1.65
2023-04-02T07:30:26.852Z,1.77
2023-04-02T07:35:43.857Z,1.65
2023-04-02T07:41:06.517Z,1.27
2023-04-02T07:46:22.522Z,1.05
2023-04-02T07:51:38.524Z,1.20
2023-04-02T07:56:54.697Z,1.02
2023-04-02T08:02:22.062Z,1.13
2023-04-02T08:07:39.230Z,0.90
2023-04-02T08:12:55.086Z,0.70
2023-04-02T08:18:11.385Z,1.00
2023-04-02T08:23:27.962Z,0.90
2023-04-02T08:28:43.692Z,1.23
2023-04-02T08:33:59.680Z,1.50
2023-04-02T08:39:15.750Z,1.05
2023-04-02T08:45:08.127Z,0.85
2023-04-02T08:50:36.522Z,0.60
2023-04-02T08:56:06.028Z,0.77
2023-04-02T09:01:22.172Z,1.05
2023-04-02T09:06:37.879Z,0.90
2023-04-02T09:12:05.322Z,0.57
2023-04-02T09:17:22.348Z,0.77
2023-04-02T09:22:39.136Z,1.05
2023-04-02T09:27:57.234Z,0.95
2023-04-02T09:33:13.109Z,0.50
2023-04-02T09:38:33.285Z,0.98
2023-04-02T09:43:49.303Z,0.70
2023-04-02T09:49:06.608Z,0.80
2023-04-02T09:54:22.998Z,0.88
2023-04-02T09:59:39.087Z,0.60
2023-04-02T10:04:54.982Z,0.85
2023-04-02T10:10:19.559Z,0.80
2023-04-02T10:16:05.612Z,0.93
2023-04-02T10:21:38.971Z,0.93
2023-04-02T10:27:18.183Z,0.93
2023-04-02T10:32:43.545Z,0.77
2023-04-02T10:38:29.665Z,0.88
2023-04-02T10:44:30.670Z,1.00
2023-04-02T10:50:04.104Z,1.00
2023-04-02T10:55:28.439Z,0.75
2023-04-02T11:00:46.941Z,0.70
2023-04-02T11:06:15.133Z,0.85
2023-04-02T11:11:43.478Z,0.90
2023-04-02T11:17:03.306Z,0.55
2023-04-02T11:22:22.540Z,0.60
2023-04-02T11:27:38.806Z,0.70
2023-04-02T11:33:18.644Z,0.75
2023-04-02T11:38:46.640Z,0.60
2023-04-02T11:44:02.823Z,0.60
2023-04-02T11:49:36.360Z,1.00
2023-04-02T11:54:58.923Z,0.60
2023-04-02T12:00:31.120Z,0.55
2023-04-02T12:05:59.003Z,0.30
2023-04-02T12:11:16.085Z,0.30
2023-04-02T12:16:35.131Z,0.52
2023-04-02T12:21:53.385Z,0.82
2023-04-02T12:27:17.492Z,0.30
2023-04-02T12:32:33.525Z,0.60
2023-04-02T12:37:54.185Z,0.47
2023-04-02T12:43:27.838Z,0.40
2023-04-02T12:48:43.653Z,0.30
2023-04-02T12:53:59.499Z,0.38
2023-04-02T12:59:29.693Z,0.40
2023-04-02T13:04:54.591Z,0.40
2023-04-02T13:10:26.028Z,0.50
2023-04-02T13:15:43.972Z,0.50
2023-04-02T13:21:21.415Z,1.67
2023-04-02T13:26:37.331Z,0.70
2023-04-02T13:31:56.071Z,0.45
2023-04-02T13:37:13.546Z,0.70
2023-04-02T13:42:29.108Z,0.70
2023-04-02T13:47:45.141Z,0.50
2023-04-02T13:53:09.689Z,0.75
2023-04-02T13:58:26.743Z,0.50
2023-04-02T14:03:42.857Z,0.50
2023-04-02T14:08:58.674Z,0.60
2023-04-02T14:14:33.183Z,0.60
2023-04-02T14:20:13.642Z,0.70
2023-04-02T14:26:19.302Z,0.53
2023-04-02T14:31:44.426Z,0.47
2023-04-02T14:37:26.905Z,1.83
2023-04-02T14:42:57.650Z,0.47
2023-04-02T14:48:25.342Z,0.65
2023-04-02T14:53:53.396Z,0.75
2023-04-02T14:59:28.187Z,0.50
2023-04-02T15:04:49.981Z,0.85
2023-04-02T15:10:22.999Z,0.65
2023-04-02T15:16:13.416Z,0.68
2023-04-02T15:21:46.348Z,0.50
2023-04-02T15:27:27.598Z,0.60
2023-04-02T15:32:44.098Z,0.47
2023-04-02T15:38:11.949Z,0.52
2023-04-02T15:43:57.062Z,0.40
2023-04-02T15:49:37.193Z,0.50
2023-04-02T15:55:09.859Z,0.47
2023-04-02T16:00:31.045Z,0.55
2023-04-02T16:05:58.496Z,0.55
2023-04-02T16:11:16.114Z,0.40
2023-04-02T16:16:36.350Z,0.40
2023-04-02T16:22:24.596Z,0.45
2023-04-02T16:28:02.038Z,0.43
2023-04-02T16:33:32.202Z,0.40
2023-04-02T16:38:51.600Z,0.57
2023-04-02T16:44:34.279Z,0.60
2023-04-02T16:49:56.020Z,3.53
2023-04-02T16:55:46.502Z,1.77
2023-04-02T17:01:29.218Z,1.17
2023-04-02T17:07:12.806Z,0.90
2023-04-02T17:12:45.269Z,0.80
2023-04-02T17:18:02.371Z,1.75
2023-04-02T17:23:19.794Z,2.22
2023-04-02T17:28:37.251Z,1.77
2023-04-02T17:33:52.961Z,2.00
2023-04-02T17:39:08.645Z,2.63
2023-04-02T17:45:01.323Z,1.48
2023-04-02T17:50:39.305Z,1.60
2023-04-02T17:56:07.427Z,1.77
2023-04-02T18:01:39.028Z,2.22
2023-04-02T18:12:45.352Z,2.97
2023-04-02T18:18:40.792Z,1.90
2023-04-02T18:24:02.346Z,1.50
2023-04-02T18:29:26.917Z,1.42
2023-04-02T18:34:57.468Z,1.40
2023-04-02T18:40:51.722Z,1.43
2023-04-02T18:46:22.742Z,1.10
2023-04-02T18:51:40.633Z,1.70
2023-04-02T18:56:56.513Z,1.77
2023-04-02T19:02:37.629Z,1.38
2023-04-02T19:07:59.720Z,1.52
2023-04-02T19:13:18.496Z,1.67
2023-04-02T19:18:58.181Z,1.73
2023-04-02T19:24:23.075Z,1.20
2023-04-02T19:29:41.812Z,1.35
2023-04-02T19:35:28.639Z,1.13
2023-04-02T19:40:57.387Z,1.63
2023-04-02T19:46:13.413Z,2.30
2023-04-02T19:51:29.705Z,2.17
2023-04-02T19:56:46.638Z,1.45
2023-04-02T20:02:06.308Z,1.75
2023-04-02T20:07:23.040Z,1.73
2023-04-02T20:12:38.633Z,1.63
2023-04-02T20:17:54.052Z,1.83
2023-04-02T20:23:09.782Z,1.55
2023-04-02T20:28:28.081Z,1.88
2023-04-02T20:33:44.815Z,1.95
2023-04-02T20:39:00.914Z,2.13
2023-04-02T20:44:17.180Z,2.45
2023-04-02T20:49:32.847Z,1.92
2023-04-02T20:54:49.802Z,2.00
2023-04-02T21:00:08.670Z,1.65
2023-04-02T21:05:24.339Z,2.03
2023-04-02T21:10:41.113Z,1.92
2023-04-02T21:15:57.013Z,1.98
2023-04-02T21:21:14.104Z,1.92
2023-04-02T21:26:33.459Z,1.88
2023-04-02T21:31:50.697Z,2.15
2023-04-02T21:37:06.427Z,2.25
2023-04-02T21:42:22.699Z,1.85
2023-04-02T21:47:38.659Z,1.77
2023-04-02T21:52:54.568Z,1.75
2023-04-02T21:58:10.400Z,2.78
2023-04-02T22:03:31.729Z,2.08
2023-04-02T22:08:59.347Z,1.80
2023-04-02T22:14:15.946Z,2.55
2023-04-02T22:19:33.356Z,1.95
2023-04-02T22:24:48.944Z,1.40
2023-04-02T22:30:06.636Z,1.45
2023-04-02T22:35:22.379Z,1.50
2023-04-02T22:40:38.327Z,1.42
2023-04-02T22:45:54.145Z,1.45
2023-04-02T22:51:11.915Z,1.25
2023-04-02T22:56:32.123Z,0.75
2023-04-02T23:01:48.215Z,0.90
2023-04-02T23:07:04.466Z,1.13
2023-04-02T23:12:21.424Z,1.38
2023-04-02T23:17:38.169Z,1.20
2023-04-02T23:22:54.033Z,0.75
2023-04-02T23:28:12.993Z,0.40
2023-04-02T23:33:28.361Z,0.30
2023-04-02T23:38:44.247Z,0.32
2023-04-02T23:44:00.786Z,0.30
2023-04-02T23:49:16.420Z,0.25
2023-04-02T23:54:32.506Z,0.40
2023-04-02T23:59:48.410Z,0.35
